sensor_id;sensor_type;location;lat;lon;timestamp;pressure;altitude;pressure_sealevel;temperature;humidity
36828;BME280;22766;48.042;11.192;2023-06-24T00:00:08;95934.66;;;15.17;100.00
36828;BME280;22766;48.042;11.192;2023-06-24T00:02:39;95939.69;;;15.18;100.00
36828;BME280;22766;48.042;11.192;2023-06-24T00:05:10;95936.78;;;15.21;100.00
36828;BME280;22766;48.042;11.192;2023-06-24T00:07:37;95947.19;;;15.21;100.00
36828;BME280;22766;48.042;11.192;2023-06-24T00:10:15;95953.19;;;15.22;100.00
36828;BME280;22766;48.042;11.192;2023-06-24T00:12:45;95936.47;;;15.24;100.00
36828;BME280;22766;48.042;11.192;2023-06-24T00:15:11;95942.78;;;15.22;100.00
36828;BME280;22766;48.042;11.192;2023-06-24T00:17:39;95940.72;;;15.25;100.00
36828;BME280;22766;48.042;11.192;2023-06-24T00:20:06;95930.31;;;15.25;100.00
36828;BME280;22766;48.042;11.192;2023-06-24T00:22:40;95932.41;;;15.30;100.00
36828;BME280;22766;48.042;11.192;2023-06-24T00:25:11;95938.28;;;15.32;100.00
36828;BME280;22766;48.042;11.192;2023-06-24T00:27:37;95935.00;;;15.30;100.00
36828;BME280;22766;48.042;11.192;2023-06-24T00:30:05;95933.41;;;15.37;100.00
36828;BME280;22766;48.042;11.192;2023-06-24T00:32:34;95929.69;;;15.39;100.00
36828;BME280;22766;48.042;11.192;2023-06-24T00:35:01;95929.19;;;15.36;100.00
36828;BME280;22766;48.042;11.192;2023-06-24T00:37:28;95926.25;;;15.39;100.00
36828;BME280;22766;48.042;11.192;2023-06-24T00:39:55;95924.69;;;15.46;100.00
36828;BME280;22766;48.042;11.192;2023-06-24T00:42:21;95929.25;;;15.44;100.00
36828;BME280;22766;48.042;11.192;2023-06-24T00:44:49;95930.94;;;15.27;100.00
36828;BME280;22766;48.042;11.192;2023-06-24T00:47:16;95939.22;;;15.23;100.00
36828;BME280;22766;48.042;11.192;2023-06-24T00:49:43;95938.28;;;15.32;100.00
36828;BME280;22766;48.042;11.192;2023-06-24T00:52:12;95930.19;;;15.35;100.00
36828;BME280;22766;48.042;11.192;2023-06-24T00:54:43;95929.03;;;15.37;100.00
36828;BME280;22766;48.042;11.192;2023-06-24T00:57:10;95919.78;;;15.35;100.00
36828;BME280;22766;48.042;11.192;2023-06-24T00:59:37;95917.00;;;15.36;100.00
36828;BME280;22766;48.042;11.192;2023-06-24T01:02:05;95917.78;;;15.29;100.00
36828;BME280;22766;48.042;11.192;2023-06-24T01:04:33;95913.88;;;15.25;100.00
36828;BME280;22766;48.042;11.192;2023-06-24T01:07:01;95917.13;;;15.27;100.00
36828;BME280;22766;48.042;11.192;2023-06-24T01:09:28;95918.25;;;15.24;100.00
36828;BME280;22766;48.042;11.192;2023-06-24T01:11:55;95918.41;;;15.23;100.00
36828;BME280;22766;48.042;11.192;2023-06-24T01:14:23;95913.00;;;15.08;100.00
36828;BME280;22766;48.042;11.192;2023-06-24T01:16:59;95918.22;;;15.08;100.00
36828;BME280;22766;48.042;11.192;2023-06-24T01:22:14;95917.75;;;15.21;100.00
36828;BME280;22766;48.042;11.192;2023-06-24T01:24:59;95910.59;;;15.15;100.00
36828;BME280;22766;48.042;11.192;2023-06-24T01:27:32;95895.41;;;14.94;100.00
36828;BME280;22766;48.042;11.192;2023-06-24T01:33:04;95896.34;;;14.93;100.00
36828;BME280;22766;48.042;11.192;2023-06-24T01:35:35;95896.72;;;14.98;100.00
36828;BME280;22766;48.042;11.192;2023-06-24T01:38:36;95897.00;;;14.95;100.00
36828;BME280;22766;48.042;11.192;2023-06-24T01:41:05;95904.47;;;14.90;100.00
36828;BME280;22766;48.042;11.192;2023-06-24T01:43:34;95894.25;;;14.88;100.00
36828;BME280;22766;48.042;11.192;2023-06-24T01:46:03;95897.50;;;14.90;100.00
36828;BME280;22766;48.042;11.192;2023-06-24T01:48:35;95910.66;;;14.97;100.00
36828;BME280;22766;48.042;11.192;2023-06-24T01:51:24;95915.75;;;15.07;100.00
36828;BME280;22766;48.042;11.192;2023-06-24T01:53:53;95929.63;;;15.15;100.00
36828;BME280;22766;48.042;11.192;2023-06-24T01:56:22;95928.50;;;15.18;100.00
36828;BME280;22766;48.042;11.192;2023-06-24T01:58:53;95933.03;;;15.16;100.00
36828;BME280;22766;48.042;11.192;2023-06-24T02:01:21;95934.28;;;15.04;100.00
36828;BME280;22766;48.042;11.192;2023-06-24T02:03:50;95921.56;;;14.92;100.00
36828;BME280;22766;48.042;11.192;2023-06-24T02:06:20;95924.34;;;14.99;100.00
36828;BME280;22766;48.042;11.192;2023-06-24T02:08:50;95915.94;;;14.71;100.00
36828;BME280;22766;48.042;11.192;2023-06-24T02:11:21;95908.25;;;14.62;100.00
36828;BME280;22766;48.042;11.192;2023-06-24T02:13:48;95900.72;;;14.51;100.00
36828;BME280;22766;48.042;11.192;2023-06-24T02:16:16;95896.28;;;14.43;100.00
36828;BME280;22766;48.042;11.192;2023-06-24T02:18:44;95896.97;;;14.45;100.00
36828;BME280;22766;48.042;11.192;2023-06-24T02:21:11;95888.50;;;14.43;100.00
36828;BME280;22766;48.042;11.192;2023-06-24T02:23:39;95882.31;;;14.19;100.00
36828;BME280;22766;48.042;11.192;2023-06-24T02:26:07;95890.09;;;14.19;100.00
36828;BME280;22766;48.042;11.192;2023-06-24T02:28:34;95894.16;;;14.21;100.00
36828;BME280;22766;48.042;11.192;2023-06-24T02:31:02;95890.22;;;14.17;100.00
36828;BME280;22766;48.042;11.192;2023-06-24T02:33:30;95898.50;;;14.30;100.00
36828;BME280;22766;48.042;11.192;2023-06-24T02:35:56;95898.03;;;14.17;100.00
36828;BME280;22766;48.042;11.192;2023-06-24T02:38:23;95895.47;;;13.99;100.00
36828;BME280;22766;48.042;11.192;2023-06-24T02:40:54;95893.56;;;14.01;100.00
36828;BME280;22766;48.042;11.192;2023-06-24T02:43:21;95895.47;;;13.99;100.00
36828;BME280;22766;48.042;11.192;2023-06-24T02:45:48;95897.09;;;14.00;100.00
36828;BME280;22766;48.042;11.192;2023-06-24T02:48:17;95899.84;;;13.99;100.00
36828;BME280;22766;48.042;11.192;2023-06-24T02:50:47;95900.53;;;14.01;100.00
36828;BME280;22766;48.042;11.192;2023-06-24T02:53:14;95902.28;;;14.00;100.00
36828;BME280;22766;48.042;11.192;2023-06-24T02:55:42;95904.09;;;14.26;100.00
36828;BME280;22766;48.042;11.192;2023-06-24T02:58:11;95905.72;;;14.27;100.00
36828;BME280;22766;48.042;11.192;2023-06-24T03:00:59;95906.56;;;14.27;100.00
36828;BME280;22766;48.042;11.192;2023-06-24T03:03:45;95914.22;;;14.29;100.00
36828;BME280;22766;48.042;11.192;2023-06-24T03:06:17;95917.09;;;14.26;100.00
36828;BME280;22766;48.042;11.192;2023-06-24T03:08:46;95917.25;;;14.24;100.00
36828;BME280;22766;48.042;11.192;2023-06-24T03:11:14;95924.75;;;14.27;100.00
36828;BME280;22766;48.042;11.192;2023-06-24T03:13:42;95926.66;;;14.25;100.00
36828;BME280;22766;48.042;11.192;2023-06-24T03:16:13;95930.91;;;14.26;100.00
36828;BME280;22766;48.042;11.192;2023-06-24T03:18:52;95934.19;;;14.28;100.00
36828;BME280;22766;48.042;11.192;2023-06-24T03:21:20;95929.94;;;14.27;100.00
36828;BME280;22766;48.042;11.192;2023-06-24T03:23:49;95932.09;;;14.32;100.00
36828;BME280;22766;48.042;11.192;2023-06-24T03:26:16;95937.47;;;14.30;100.00
36828;BME280;22766;48.042;11.192;2023-06-24T03:28:42;95930.06;;;14.26;100.00
36828;BME280;22766;48.042;11.192;2023-06-24T03:31:14;95935.53;;;14.32;100.00
36828;BME280;22766;48.042;11.192;2023-06-24T03:33:44;95941.66;;;14.31;100.00
36828;BME280;22766;48.042;11.192;2023-06-24T03:36:14;95938.91;;;14.33;100.00
36828;BME280;22766;48.042;11.192;2023-06-24T03:38:41;95945.09;;;14.32;100.00
36828;BME280;22766;48.042;11.192;2023-06-24T03:41:08;95940.72;;;14.32;100.00
36828;BME280;22766;48.042;11.192;2023-06-24T03:43:35;95938.75;;;14.34;100.00
36828;BME280;22766;48.042;11.192;2023-06-24T03:46:02;95938.31;;;14.39;100.00
36828;BME280;22766;48.042;11.192;2023-06-24T03:48:29;95940.59;;;14.42;100.00
36828;BME280;22766;48.042;11.192;2023-06-24T03:50:56;95935.94;;;14.45;100.00
36828;BME280;22766;48.042;11.192;2023-06-24T03:53:23;95940.31;;;14.45;100.00
36828;BME280;22766;48.042;11.192;2023-06-24T03:55:50;95936.94;;;14.52;100.00
36828;BME280;22766;48.042;11.192;2023-06-24T03:58:17;95942.31;;;14.59;100.00
36828;BME280;22766;48.042;11.192;2023-06-24T04:00:44;95937.00;;;14.60;100.00
36828;BME280;22766;48.042;11.192;2023-06-24T04:03:11;95937.59;;;14.54;100.00
36828;BME280;22766;48.042;11.192;2023-06-24T04:05:38;95925.06;;;14.50;100.00
36828;BME280;22766;48.042;11.192;2023-06-24T04:08:05;95930.41;;;14.48;100.00
36828;BME280;22766;48.042;11.192;2023-06-24T04:10:34;95925.88;;;14.50;100.00
36828;BME280;22766;48.042;11.192;2023-06-24T04:13:01;95931.63;;;14.62;100.00
36828;BME280;22766;48.042;11.192;2023-06-24T04:15:27;95930.66;;;14.63;100.00
36828;BME280;22766;48.042;11.192;2023-06-24T04:17:54;95932.59;;;14.61;100.00
36828;BME280;22766;48.042;11.192;2023-06-24T04:20:21;95930.00;;;14.61;100.00
36828;BME280;22766;48.042;11.192;2023-06-24T04:22:50;95932.47;;;14.62;100.00
36828;BME280;22766;48.042;11.192;2023-06-24T04:25:17;95939.63;;;14.68;100.00
36828;BME280;22766;48.042;11.192;2023-06-24T04:27:43;95940.50;;;14.77;100.00
36828;BME280;22766;48.042;11.192;2023-06-24T04:30:11;95941.81;;;14.81;100.00
36828;BME280;22766;48.042;11.192;2023-06-24T04:32:38;95950.72;;;14.78;100.00
36828;BME280;22766;48.042;11.192;2023-06-24T04:35:05;95950.44;;;14.81;100.00
36828;BME280;22766;48.042;11.192;2023-06-24T04:37:34;95943.44;;;14.82;100.00
36828;BME280;22766;48.042;11.192;2023-06-24T04:40:01;95951.44;;;14.88;100.00
36828;BME280;22766;48.042;11.192;2023-06-24T04:42:28;95952.75;;;14.92;100.00
36828;BME280;22766;48.042;11.192;2023-06-24T04:44:55;95962.06;;;15.03;100.00
36828;BME280;22766;48.042;11.192;2023-06-24T04:47:21;95961.44;;;15.09;100.00
36828;BME280;22766;48.042;11.192;2023-06-24T04:49:48;95956.75;;;15.13;100.00
36828;BME280;22766;48.042;11.192;2023-06-24T04:52:15;95966.69;;;15.17;100.00
36828;BME280;22766;48.042;11.192;2023-06-24T04:54:42;95960.22;;;15.21;100.00
36828;BME280;22766;48.042;11.192;2023-06-24T04:57:09;95966.84;;;15.16;100.00
36828;BME280;22766;48.042;11.192;2023-06-24T04:59:49;95959.72;;;15.26;100.00
36828;BME280;22766;48.042;11.192;2023-06-24T05:02:16;95959.75;;;15.34;100.00
36828;BME280;22766;48.042;11.192;2023-06-24T05:04:42;95970.34;;;15.40;100.00
36828;BME280;22766;48.042;11.192;2023-06-24T05:07:09;95970.97;;;15.34;100.00
36828;BME280;22766;48.042;11.192;2023-06-24T05:09:36;95966.63;;;15.43;100.00
36828;BME280;22766;48.042;11.192;2023-06-24T05:12:05;95969.44;;;15.49;100.00
36828;BME280;22766;48.042;11.192;2023-06-24T05:14:34;95966.50;;;15.52;100.00
36828;BME280;22766;48.042;11.192;2023-06-24T05:17:02;95963.47;;;15.65;100.00
36828;BME280;22766;48.042;11.192;2023-06-24T05:19:29;95961.66;;;15.65;100.00
36828;BME280;22766;48.042;11.192;2023-06-24T05:21:56;95958.09;;;15.66;100.00
36828;BME280;22766;48.042;11.192;2023-06-24T05:24:22;95959.19;;;15.56;100.00
36828;BME280;22766;48.042;11.192;2023-06-24T05:26:50;95962.47;;;15.66;100.00
36828;BME280;22766;48.042;11.192;2023-06-24T05:29:18;95963.81;;;15.78;100.00
36828;BME280;22766;48.042;11.192;2023-06-24T05:31:44;95970.50;;;16.05;100.00
36828;BME280;22766;48.042;11.192;2023-06-24T05:34:13;95965.78;;;16.08;100.00
36828;BME280;22766;48.042;11.192;2023-06-24T05:36:39;95976.03;;;16.02;100.00
36828;BME280;22766;48.042;11.192;2023-06-24T05:39:06;95978.66;;;16.18;100.00
36828;BME280;22766;48.042;11.192;2023-06-24T05:41:34;95978.31;;;16.21;100.00
36828;BME280;22766;48.042;11.192;2023-06-24T05:44:03;95973.63;;;16.16;100.00
36828;BME280;22766;48.042;11.192;2023-06-24T05:46:30;95982.56;;;16.22;100.00
36828;BME280;22766;48.042;11.192;2023-06-24T05:48:57;95984.84;;;16.17;100.00
36828;BME280;22766;48.042;11.192;2023-06-24T05:51:25;95986.63;;;16.24;100.00
36828;BME280;22766;48.042;11.192;2023-06-24T05:53:51;95977.69;;;16.35;100.00
36828;BME280;22766;48.042;11.192;2023-06-24T05:56:20;95985.81;;;16.40;100.00
36828;BME280;22766;48.042;11.192;2023-06-24T05:58:48;95983.72;;;16.51;100.00
36828;BME280;22766;48.042;11.192;2023-06-24T06:01:15;95983.13;;;17.04;100.00
36828;BME280;22766;48.042;11.192;2023-06-24T06:03:42;95986.09;;;16.85;100.00
36828;BME280;22766;48.042;11.192;2023-06-24T06:06:09;95988.94;;;16.59;100.00
36828;BME280;22766;48.042;11.192;2023-06-24T06:08:35;95995.44;;;16.55;100.00
36828;BME280;22766;48.042;11.192;2023-06-24T06:11:02;95995.63;;;16.54;100.00
36828;BME280;22766;48.042;11.192;2023-06-24T06:13:29;95986.81;;;16.55;100.00
36828;BME280;22766;48.042;11.192;2023-06-24T06:15:57;95993.50;;;16.57;100.00
36828;BME280;22766;48.042;11.192;2023-06-24T06:18:23;95988.75;;;16.61;100.00
36828;BME280;22766;48.042;11.192;2023-06-24T06:20:50;95990.72;;;16.75;100.00
36828;BME280;22766;48.042;11.192;2023-06-24T06:23:18;95990.38;;;16.78;100.00
36828;BME280;22766;48.042;11.192;2023-06-24T06:25:45;95986.16;;;16.77;100.00
36828;BME280;22766;48.042;11.192;2023-06-24T06:28:14;95981.41;;;16.89;100.00
36828;BME280;22766;48.042;11.192;2023-06-24T06:30:41;95983.94;;;17.13;100.00
36828;BME280;22766;48.042;11.192;2023-06-24T06:33:11;95979.44;;;17.37;100.00
36828;BME280;22766;48.042;11.192;2023-06-24T06:35:37;95984.84;;;17.28;100.00
36828;BME280;22766;48.042;11.192;2023-06-24T06:38:05;95985.03;;;17.26;100.00
36828;BME280;22766;48.042;11.192;2023-06-24T06:40:31;95986.16;;;17.32;100.00
36828;BME280;22766;48.042;11.192;2023-06-24T06:42:58;95983.88;;;17.67;100.00
36828;BME280;22766;48.042;11.192;2023-06-24T06:45:25;95990.19;;;17.34;100.00
36828;BME280;22766;48.042;11.192;2023-06-24T06:47:52;95989.91;;;17.21;100.00
36828;BME280;22766;48.042;11.192;2023-06-24T06:50:19;95999.88;;;17.18;100.00
36828;BME280;22766;48.042;11.192;2023-06-24T06:52:46;95993.66;;;17.27;100.00
36828;BME280;22766;48.042;11.192;2023-06-24T06:55:13;95999.78;;;17.50;100.00
36828;BME280;22766;48.042;11.192;2023-06-24T06:57:40;95989.59;;;17.63;100.00
36828;BME280;22766;48.042;11.192;2023-06-24T07:00:07;95993.94;;;17.79;100.00
36828;BME280;22766;48.042;11.192;2023-06-24T07:02:33;95995.19;;;17.91;100.00
36828;BME280;22766;48.042;11.192;2023-06-24T07:05:00;95998.84;;;18.04;100.00
36828;BME280;22766;48.042;11.192;2023-06-24T07:07:27;95991.47;;;17.85;100.00
36828;BME280;22766;48.042;11.192;2023-06-24T07:09:54;95990.31;;;18.10;100.00
36828;BME280;22766;48.042;11.192;2023-06-24T07:12:21;95992.34;;;18.23;100.00
36828;BME280;22766;48.042;11.192;2023-06-24T07:14:50;95990.78;;;18.36;100.00
36828;BME280;22766;48.042;11.192;2023-06-24T07:17:17;95987.78;;;18.39;100.00
36828;BME280;22766;48.042;11.192;2023-06-24T07:19:44;95988.94;;;18.45;100.00
36828;BME280;22766;48.042;11.192;2023-06-24T07:22:10;95986.69;;;18.34;100.00
36828;BME280;22766;48.042;11.192;2023-06-24T07:24:37;95993.22;;;18.38;100.00
36828;BME280;22766;48.042;11.192;2023-06-24T07:27:05;95987.13;;;18.45;100.00
36828;BME280;22766;48.042;11.192;2023-06-24T07:29:32;95981.72;;;18.47;100.00
36828;BME280;22766;48.042;11.192;2023-06-24T07:31:59;95994.56;;;18.56;100.00
36828;BME280;22766;48.042;11.192;2023-06-24T07:34:26;95989.28;;;18.79;100.00
36828;BME280;22766;48.042;11.192;2023-06-24T07:36:52;95991.81;;;18.87;100.00
36828;BME280;22766;48.042;11.192;2023-06-24T07:39:19;95985.06;;;18.93;100.00
36828;BME280;22766;48.042;11.192;2023-06-24T07:41:46;95986.03;;;19.21;100.00
36828;BME280;22766;48.042;11.192;2023-06-24T07:44:13;95989.66;;;19.20;96.56
36828;BME280;22766;48.042;11.192;2023-06-24T07:46:40;95985.94;;;19.00;100.00
36828;BME280;22766;48.042;11.192;2023-06-24T07:49:07;95992.81;;;19.01;100.00
36828;BME280;22766;48.042;11.192;2023-06-24T07:51:33;95988.66;;;18.92;100.00
36828;BME280;22766;48.042;11.192;2023-06-24T07:54:01;95995.06;;;18.89;100.00
36828;BME280;22766;48.042;11.192;2023-06-24T07:56:28;95985.59;;;19.17;98.61
36828;BME280;22766;48.042;11.192;2023-06-24T07:58:55;95989.47;;;19.65;94.01
36828;BME280;22766;48.042;11.192;2023-06-24T08:01:22;95987.34;;;19.90;92.58
36828;BME280;22766;48.042;11.192;2023-06-24T08:03:48;95987.13;;;20.06;89.24
36828;BME280;22766;48.042;11.192;2023-06-24T08:06:15;95988.16;;;20.54;94.83
36828;BME280;22766;48.042;11.192;2023-06-24T08:08:42;95995.38;;;20.45;88.24
36828;BME280;22766;48.042;11.192;2023-06-24T08:11:09;95993.03;;;20.78;88.00
36828;BME280;22766;48.042;11.192;2023-06-24T08:13:36;95993.69;;;20.86;89.30
36828;BME280;22766;48.042;11.192;2023-06-24T08:16:02;95997.88;;;21.02;90.83
36828;BME280;22766;48.042;11.192;2023-06-24T08:18:29;95999.97;;;21.13;79.58
36828;BME280;22766;48.042;11.192;2023-06-24T08:20:56;96003.34;;;21.41;81.59
36828;BME280;22766;48.042;11.192;2023-06-24T08:23:22;96001.72;;;21.81;75.13
36828;BME280;22766;48.042;11.192;2023-06-24T08:25:49;95998.47;;;22.39;72.05
36828;BME280;22766;48.042;11.192;2023-06-24T08:28:21;95992.81;;;22.49;58.39
36828;BME280;22766;48.042;11.192;2023-06-24T08:30:48;95991.75;;;22.23;63.79
36828;BME280;22766;48.042;11.192;2023-06-24T08:33:15;95991.16;;;22.28;60.46
36828;BME280;22766;48.042;11.192;2023-06-24T08:35:42;95992.81;;;22.49;51.79
36828;BME280;22766;48.042;11.192;2023-06-24T08:38:09;95993.84;;;22.67;52.98
36828;BME280;22766;48.042;11.192;2023-06-24T08:40:35;95981.81;;;23.23;56.35
36828;BME280;22766;48.042;11.192;2023-06-24T08:43:03;95981.44;;;23.20;48.77
36828;BME280;22766;48.042;11.192;2023-06-24T08:45:30;95983.84;;;23.28;48.07
36828;BME280;22766;48.042;11.192;2023-06-24T08:47:57;95981.09;;;22.71;48.99
36828;BME280;22766;48.042;11.192;2023-06-24T08:50:27;95985.13;;;22.86;51.65
36828;BME280;22766;48.042;11.192;2023-06-24T08:52:56;95981.66;;;23.18;53.18
36828;BME280;22766;48.042;11.192;2023-06-24T08:55:27;95982.81;;;23.49;52.54
36828;BME280;22766;48.042;11.192;2023-06-24T08:57:55;95984.41;;;23.56;52.70
36828;BME280;22766;48.042;11.192;2023-06-24T09:00:23;95982.06;;;23.09;51.68
36828;BME280;22766;48.042;11.192;2023-06-24T09:02:50;95986.34;;;23.03;53.42
36828;BME280;22766;48.042;11.192;2023-06-24T09:05:17;95980.47;;;23.01;52.06
36828;BME280;22766;48.042;11.192;2023-06-24T09:07:44;95976.59;;;22.52;51.20
36828;BME280;22766;48.042;11.192;2023-06-24T09:10:29;95985.59;;;21.90;53.77
36828;BME280;22766;48.042;11.192;2023-06-24T09:12:57;95984.03;;;21.55;55.14
36828;BME280;22766;48.042;11.192;2023-06-24T09:15:23;95978.13;;;22.00;58.87
36828;BME280;22766;48.042;11.192;2023-06-24T09:17:50;95976.19;;;22.42;54.25
36828;BME280;22766;48.042;11.192;2023-06-24T09:20:19;95972.78;;;22.80;54.15
36828;BME280;22766;48.042;11.192;2023-06-24T09:22:48;95972.31;;;22.24;51.99
36828;BME280;22766;48.042;11.192;2023-06-24T09:25:18;95972.53;;;22.49;52.37
36828;BME280;22766;48.042;11.192;2023-06-24T09:27:49;95962.47;;;22.66;51.03
36828;BME280;22766;48.042;11.192;2023-06-24T09:30:20;95965.88;;;22.53;52.00
36828;BME280;22766;48.042;11.192;2023-06-24T09:32:48;95962.47;;;22.79;53.42
36828;BME280;22766;48.042;11.192;2023-06-24T09:35:23;95968.66;;;23.23;51.96
36828;BME280;22766;48.042;11.192;2023-06-24T09:37:56;95961.34;;;23.45;48.91
36828;BME280;22766;48.042;11.192;2023-06-24T09:40:26;95953.91;;;23.09;51.42
36828;BME280;22766;48.042;11.192;2023-06-24T09:42:56;95953.00;;;23.48;49.94
36828;BME280;22766;48.042;11.192;2023-06-24T09:45:27;95963.84;;;23.78;48.32
36828;BME280;22766;48.042;11.192;2023-06-24T09:47:55;95959.50;;;23.90;46.58
36828;BME280;22766;48.042;11.192;2023-06-24T09:50:22;95965.78;;;24.33;45.05
36828;BME280;22766;48.042;11.192;2023-06-24T09:52:50;95962.19;;;24.21;47.00
36828;BME280;22766;48.042;11.192;2023-06-24T09:55:17;95965.13;;;24.38;44.44
36828;BME280;22766;48.042;11.192;2023-06-24T09:57:46;95965.69;;;24.46;45.89
36828;BME280;22766;48.042;11.192;2023-06-24T10:00:14;95954.34;;;23.70;48.77
36828;BME280;22766;48.042;11.192;2023-06-24T10:02:44;95947.63;;;23.04;56.33
36828;BME280;22766;48.042;11.192;2023-06-24T10:05:12;95943.16;;;23.11;57.08
36828;BME280;22766;48.042;11.192;2023-06-24T10:07:40;95943.06;;;23.50;50.47
36828;BME280;22766;48.042;11.192;2023-06-24T10:10:08;95939.88;;;23.35;54.03
36828;BME280;22766;48.042;11.192;2023-06-24T10:12:37;95941.72;;;23.15;55.17
36828;BME280;22766;48.042;11.192;2023-06-24T10:15:05;95928.47;;;22.64;53.32
36828;BME280;22766;48.042;11.192;2023-06-24T10:17:32;95933.88;;;23.02;51.17
36828;BME280;22766;48.042;11.192;2023-06-24T10:20:04;95927.59;;;23.67;55.87
36828;BME280;22766;48.042;11.192;2023-06-24T10:22:31;95923.22;;;24.48;55.99
36828;BME280;22766;48.042;11.192;2023-06-24T10:25:05;95920.78;;;24.95;51.61
36828;BME280;22766;48.042;11.192;2023-06-24T10:27:39;95919.97;;;24.95;48.39
36828;BME280;22766;48.042;11.192;2023-06-24T10:30:08;95918.25;;;25.07;48.47
36828;BME280;22766;48.042;11.192;2023-06-24T10:32:40;95916.25;;;25.02;42.70
36828;BME280;22766;48.042;11.192;2023-06-24T10:35:23;95909.63;;;24.69;44.69
36828;BME280;22766;48.042;11.192;2023-06-24T10:38:00;95913.53;;;24.42;43.92
36828;BME280;22766;48.042;11.192;2023-06-24T10:40:37;95900.94;;;23.44;49.14
36828;BME280;22766;48.042;11.192;2023-06-24T10:45:54;95900.09;;;22.73;51.74
36828;BME280;22766;48.042;11.192;2023-06-24T10:48:35;95894.22;;;22.64;54.22
36828;BME280;22766;48.042;11.192;2023-06-24T10:51:02;95907.59;;;22.69;56.47
36828;BME280;22766;48.042;11.192;2023-06-24T10:53:29;95894.81;;;22.79;57.66
36828;BME280;22766;48.042;11.192;2023-06-24T10:55:57;95889.38;;;22.68;54.51
36828;BME280;22766;48.042;11.192;2023-06-24T10:58:24;95894.09;;;23.23;52.59
36828;BME280;22766;48.042;11.192;2023-06-24T11:00:51;95888.13;;;23.47;45.07
36828;BME280;22766;48.042;11.192;2023-06-24T11:03:18;95888.72;;;23.87;46.01
36828;BME280;22766;48.042;11.192;2023-06-24T11:05:46;95875.16;;;24.15;45.40
36828;BME280;22766;48.042;11.192;2023-06-24T11:08:14;95874.63;;;24.98;43.77
36828;BME280;22766;48.042;11.192;2023-06-24T11:10:46;95873.31;;;25.07;39.50
36828;BME280;22766;48.042;11.192;2023-06-24T11:13:13;95867.91;;;24.10;38.96
36828;BME280;22766;48.042;11.192;2023-06-24T11:15:40;95864.75;;;24.69;39.48
36828;BME280;22766;48.042;11.192;2023-06-24T11:18:09;95868.44;;;24.43;37.29
36828;BME280;22766;48.042;11.192;2023-06-24T11:20:39;95867.09;;;24.09;41.96
36828;BME280;22766;48.042;11.192;2023-06-24T11:23:07;95859.22;;;24.77;42.11
36828;BME280;22766;48.042;11.192;2023-06-24T11:25:42;95856.72;;;25.18;40.70
36828;BME280;22766;48.042;11.192;2023-06-24T11:28:17;95852.03;;;25.68;38.76
36828;BME280;22766;48.042;11.192;2023-06-24T11:30:49;95845.06;;;25.85;36.96
36828;BME280;22766;48.042;11.192;2023-06-24T11:33:27;95845.22;;;26.02;37.51
36828;BME280;22766;48.042;11.192;2023-06-24T11:35:54;95844.00;;;25.74;36.84
36828;BME280;22766;48.042;11.192;2023-06-24T11:38:21;95838.38;;;25.82;37.61
36828;BME280;22766;48.042;11.192;2023-06-24T11:40:48;95840.91;;;26.19;38.18
36828;BME280;22766;48.042;11.192;2023-06-24T11:43:15;95830.56;;;26.29;38.45
36828;BME280;22766;48.042;11.192;2023-06-24T11:45:42;95832.63;;;26.27;39.21
36828;BME280;22766;48.042;11.192;2023-06-24T11:48:08;95824.38;;;25.52;38.53
36828;BME280;22766;48.042;11.192;2023-06-24T11:50:36;95824.50;;;24.73;39.20
36828;BME280;22766;48.042;11.192;2023-06-24T11:53:04;95825.31;;;24.00;39.97
36828;BME280;22766;48.042;11.192;2023-06-24T11:55:31;95827.91;;;24.56;44.06
36828;BME280;22766;48.042;11.192;2023-06-24T11:58:01;95822.53;;;25.35;41.21
36828;BME280;22766;48.042;11.192;2023-06-24T12:00:37;95821.34;;;25.78;37.37
36828;BME280;22766;48.042;11.192;2023-06-24T12:03:06;95812.63;;;26.31;35.43
36828;BME280;22766;48.042;11.192;2023-06-24T12:05:38;95815.13;;;26.84;33.99
36828;BME280;22766;48.042;11.192;2023-06-24T12:08:10;95805.75;;;27.04;33.95
36828;BME280;22766;48.042;11.192;2023-06-24T12:10:37;95804.91;;;26.75;34.67
36828;BME280;22766;48.042;11.192;2023-06-24T12:13:06;95803.41;;;26.79;34.77
36828;BME280;22766;48.042;11.192;2023-06-24T12:15:35;95799.72;;;26.34;36.67
36828;BME280;22766;48.042;11.192;2023-06-24T12:18:02;95802.38;;;26.23;39.26
36828;BME280;22766;48.042;11.192;2023-06-24T12:20:30;95796.72;;;26.31;35.49
36828;BME280;22766;48.042;11.192;2023-06-24T12:23:03;95799.78;;;26.97;36.28
36828;BME280;22766;48.042;11.192;2023-06-24T12:25:33;95796.09;;;27.38;33.41
36828;BME280;22766;48.042;11.192;2023-06-24T12:28:00;95788.56;;;27.75;28.08
36828;BME280;22766;48.042;11.192;2023-06-24T12:30:27;95786.50;;;28.10;28.12
36828;BME280;22766;48.042;11.192;2023-06-24T12:32:55;95785.47;;;28.11;28.93
36828;BME280;22766;48.042;11.192;2023-06-24T12:35:22;95781.78;;;28.67;27.76
36828;BME280;22766;48.042;11.192;2023-06-24T12:37:52;95786.28;;;29.26;28.33
36828;BME280;22766;48.042;11.192;2023-06-24T12:40:19;95778.09;;;30.12;28.18
36828;BME280;22766;48.042;11.192;2023-06-24T12:42:46;95776.31;;;30.60;25.30
36828;BME280;22766;48.042;11.192;2023-06-24T12:45:13;95775.19;;;30.97;25.74
36828;BME280;22766;48.042;11.192;2023-06-24T12:47:40;95762.56;;;29.03;25.92
36828;BME280;22766;48.042;11.192;2023-06-24T12:50:07;95769.16;;;27.57;30.05
36828;BME280;22766;48.042;11.192;2023-06-24T12:52:36;95770.13;;;27.96;30.37
36828;BME280;22766;48.042;11.192;2023-06-24T12:55:05;95768.06;;;28.75;29.27
36828;BME280;22766;48.042;11.192;2023-06-24T12:57:33;95765.16;;;29.41;27.95